Gateway Express — WDG6245 — position and weather

sailwx.info

Track history (hours):
 
Tides and Currents Weather Stations Pressure Air Temp Water Temp Dewpoint Dewpoint Depression Visibility Wind Speed Wind Dir Waves Ship Positions

Gateway Express

Owner: American River Transportation Company, St Louis, MO. More information available from US FCC via Universal Licensing System and Coast Guard Vessel Documentation Center.

Last reported at 2018-Feb-18 06:59 UTC. Time now 2018-Feb-19 04:32 UTC.
Position N 38°36' W 090°11'.

; draft 2.4 m.

Type: Towing. MMSI: 367549430.

Date/timePositionNaut miles runAvg speedWind from/ knotsBaromVisibWave heightAir tempDewpointWater temp
2018-Feb-18 06:59N 38°36' W 090°11'0 0.0
2018-Feb-18 05:51N 38°36' W 090°11'0 0.1
2018-Feb-18 03:58N 38°36' W 090°12'0 0.1
2018-Feb-18 03:30N 38°36' W 090°12'0 0.0
2018-Feb-17 04:40N 38°36' W 090°12'2 2.5
2018-Feb-17 04:04N 38°37' W 090°11'0 1.7
2018-Feb-17 03:59N 38°37' W 090°11'2 0.2
2018-Feb-16 20:40N 38°36' W 090°12'4 1.7
2018-Feb-16 18:08N 38°40' W 090°11'0 2.8
2018-Feb-16 18:00N 38°40' W 090°11'1 2.0
2018-Feb-16 17:30N 38°39' W 090°11'2 4.1
2018-Feb-16 17:00N 38°37' W 090°11'0 0.0
2018-Feb-15 15:41N 38°37' W 090°11'1 6.9
2018-Feb-15 15:28N 38°38' W 090°11'3 4.8
2018-Feb-15 14:57N 38°41' W 090°12'2 3.9
2018-Feb-15 14:30N 38°39' W 090°11'2 0.1
2018-Feb-14 21:31N 38°37' W 090°11'0 9.0
2018-Feb-14 21:30N 38°37' W 090°11'3 6.3
2018-Feb-14 21:00N 38°40' W 090°11'0 0.2
2018-Feb-14 20:30N 38°40' W 090°11'3 5.0
2018-Feb-14 20:00N 38°38' W 090°11'2 0.9
2018-Feb-14 18:07N 38°36' W 090°11'1 9.1
2018-Feb-14 18:00N 38°37' W 090°11'3 5.9
2018-Feb-14 17:30N 38°40' W 090°11'1 2.5
2018-Feb-14 17:00N 38°39' W 090°11'2 3.8
2018-Feb-14 16:30N 38°37' W 090°11'1 0.1
2018-Feb-14 01:52N 38°36' W 090°12'0 0.1
2018-Feb-14 01:29N 38°36' W 090°12'1 0.3
2018-Feb-13 21:16N 38°37' W 090°11'2 6.5
2018-Feb-13 21:00N 38°39' W 090°11'1 1.5
2018-Feb-13 20:18N 38°38' W 090°11'3 0.1
2018-Feb-12 20:57N 38°40' W 090°11'1 1.5
2018-Feb-12 20:27N 38°41' W 090°12'1 1.7
2018-Feb-12 20:00N 38°40' W 090°11'3 5.6
2018-Feb-12 19:29N 38°37' W 090°11'0 0.2
2018-Feb-12 16:55N 38°37' W 090°11'4 9.3
2018-Feb-12 16:30N 38°41' W 090°12'1 1.0
2018-Feb-12 15:57N 38°40' W 090°11'  
2018-Feb-10 04:24N 38°36' W 090°12'0 0.0
2018-Feb-10 03:59N 38°36' W 090°12'3 6.3
2018-Feb-10 03:29N 38°39' W 090°11'2 4.3
2018-Feb-10 03:00N 38°41' W 090°12'0 0.1
2018-Feb-10 02:30N 38°41' W 090°11'2 3.3
2018-Feb-10 02:00N 38°39' W 090°11'  
Track history (hours):
 
Tides and Currents Weather Stations Pressure Air Temp Water Temp Dewpoint Dewpoint Depression Visibility Wind Speed Wind Dir Waves Ship Positions

Gateway Express

Owner: American River Transportation Company, St Louis, MO. More information available from US FCC via Universal Licensing System and Coast Guard Vessel Documentation Center.

Last reported at 2018-Feb-18 06:59 UTC. Time now 2018-Feb-19 04:32 UTC.
Position N 38°36' W 090°11'.

; draft 2.4 m.

Type: Towing. MMSI: 367549430.

Date/timePositionNaut miles runAvg speedWind from/ knotsBaromVisibWave heightAir tempDewpointWater temp
2018-Feb-18 06:59N 38°36' W 090°11'0 0.0
2018-Feb-18 05:51N 38°36' W 090°11'0 0.1
2018-Feb-18 03:58N 38°36' W 090°12'0 0.1
2018-Feb-18 03:30N 38°36' W 090°12'0 0.0
2018-Feb-17 04:40N 38°36' W 090°12'2 2.5
2018-Feb-17 04:04N 38°37' W 090°11'0 1.7
2018-Feb-17 03:59N 38°37' W 090°11'2 0.2
2018-Feb-16 20:40N 38°36' W 090°12'4 1.7
2018-Feb-16 18:08N 38°40' W 090°11'0 2.8
2018-Feb-16 18:00N 38°40' W 090°11'1 2.0
2018-Feb-16 17:30N 38°39' W 090°11'2 4.1
2018-Feb-16 17:00N 38°37' W 090°11'0 0.0
2018-Feb-15 15:41N 38°37' W 090°11'1 6.9
2018-Feb-15 15:28N 38°38' W 090°11'3 4.8
2018-Feb-15 14:57N 38°41' W 090°12'2 3.9
2018-Feb-15 14:30N 38°39' W 090°11'2 0.1
2018-Feb-14 21:31N 38°37' W 090°11'0 9.0
2018-Feb-14 21:30N 38°37' W 090°11'3 6.3
2018-Feb-14 21:00N 38°40' W 090°11'0 0.2
2018-Feb-14 20:30N 38°40' W 090°11'3 5.0
2018-Feb-14 20:00N 38°38' W 090°11'2 0.9
2018-Feb-14 18:07N 38°36' W 090°11'1 9.1
2018-Feb-14 18:00N 38°37' W 090°11'3 5.9
2018-Feb-14 17:30N 38°40' W 090°11'1 2.5
2018-Feb-14 17:00N 38°39' W 090°11'2 3.8
2018-Feb-14 16:30N 38°37' W 090°11'1 0.1
2018-Feb-14 01:52N 38°36' W 090°12'0 0.1
2018-Feb-14 01:29N 38°36' W 090°12'1 0.3
2018-Feb-13 21:16N 38°37' W 090°11'2 6.5
2018-Feb-13 21:00N 38°39' W 090°11'1 1.5
2018-Feb-13 20:18N 38°38' W 090°11'3 0.1
2018-Feb-12 20:57N 38°40' W 090°11'1 1.5
2018-Feb-12 20:27N 38°41' W 090°12'1 1.7
2018-Feb-12 20:00N 38°40' W 090°11'3 5.6
2018-Feb-12 19:29N 38°37' W 090°11'0 0.2
2018-Feb-12 16:55N 38°37' W 090°11'4 9.3
2018-Feb-12 16:30N 38°41' W 090°12'1 1.0
2018-Feb-12 15:57N 38°40' W 090°11'  
2018-Feb-10 04:24N 38°36' W 090°12'0 0.0
2018-Feb-10 03:59N 38°36' W 090°12'3 6.3
2018-Feb-10 03:29N 38°39' W 090°11'2 4.3
2018-Feb-10 03:00N 38°41' W 090°12'0 0.1
2018-Feb-10 02:30N 38°41' W 090°11'2 3.3
2018-Feb-10 02:00N 38°39' W 090°11'  

Dump ship's entire track history